SAS805 ENBO-ENAT
Flight info
| Callsign | SAS805 |
|---|---|
| Flight time | 0h 52m |
| Altitude | 37000 |
| Route | PENNO DCT ABASU DCT MOKAX DCT BADIX |
| Aircraft | A321/M-SDE3FGHIRWY/LB1 |
Departure
| Time | 2026-04-27 23:23 |
|---|---|
| Airport | Bodø Airport (ENBO) |
Arrival
| Time | 2026-04-28 00:16 |
|---|---|
| Airport | Alta Airport (ENAT) |
| Time | Latitude | Longitude | Altitude | Speed | Heading |
|---|---|---|---|---|---|
| 2026-04-27 22:57 | 67.27174 | 14.36610 | 46 ft | 0 kts | 68° |
| 2026-04-27 23:15 | 67.27170 | 14.36588 | 47 ft | 4 kts | 68° |
| 2026-04-27 23:15 | 67.27160 | 14.36523 | 44 ft | 4 kts | 70° |
| 2026-04-27 23:16 | 67.27152 | 14.36457 | 46 ft | 4 kts | 78° |
| 2026-04-27 23:16 | 67.27150 | 14.36431 | 47 ft | 0 kts | 83° |
| 2026-04-27 23:18 | 67.27152 | 14.36464 | 45 ft | 4 kts | 83° |
| 2026-04-27 23:18 | 67.27139 | 14.36561 | 46 ft | 8 kts | 125° |
| 2026-04-27 23:18 | 67.27097 | 14.36686 | 46 ft | 12 kts | 127° |
| 2026-04-27 23:18 | 67.27083 | 14.36925 | 48 ft | 14 kts | 81° |
| 2026-04-27 23:19 | 67.27101 | 14.37170 | 49 ft | 13 kts | 79° |
| 2026-04-27 23:19 | 67.27121 | 14.37414 | 54 ft | 14 kts | 78° |
| 2026-04-27 23:19 | 67.27143 | 14.37673 | 56 ft | 15 kts | 77° |
| 2026-04-27 23:19 | 67.27158 | 14.37957 | 50 ft | 17 kts | 86° |
| 2026-04-27 23:20 | 67.27160 | 14.38098 | 51 ft | 2 kts | 89° |
| 2026-04-27 23:20 | 67.27160 | 14.38158 | 51 ft | 5 kts | 89° |
| 2026-04-27 23:20 | 67.27156 | 14.38289 | 52 ft | 9 kts | 109° |
| 2026-04-27 23:20 | 67.27102 | 14.38418 | 54 ft | 12 kts | 139° |
| 2026-04-27 23:21 | 67.27096 | 14.38626 | 54 ft | 13 kts | 77° |
| 2026-04-27 23:21 | 67.27118 | 14.38882 | 54 ft | 16 kts | 78° |
| 2026-04-27 23:21 | 67.27144 | 14.39186 | 50 ft | 19 kts | 77° |
| 2026-04-27 23:21 | 67.27168 | 14.39508 | 52 ft | 16 kts | 89° |
| 2026-04-27 23:22 | 67.27182 | 14.39748 | 51 ft | 9 kts | 15° |
| 2026-04-27 23:22 | 67.27186 | 14.39677 | 50 ft | 5 kts | 240° |
| 2026-04-27 23:22 | 67.27181 | 14.39601 | 48 ft | 5 kts | 249° |
| 2026-04-27 23:22 | 67.27163 | 14.39410 | 52 ft | 34 kts | 257° |
| 2026-04-27 23:23 | 67.27049 | 14.38048 | 53 ft | 118 kts | 258° |
| 2026-04-27 23:23 | 67.26830 | 14.35439 | 233 ft | 165 kts | 259° |
| 2026-04-27 23:23 | 67.26599 | 14.32496 | 1076 ft | 166 kts | 263° |
| 2026-04-27 23:23 | 67.26742 | 14.29605 | 1956 ft | 169 kts | 302° |
| 2026-04-27 23:24 | 67.27677 | 14.27558 | 2532 ft | 191 kts | 334° |
| 2026-04-27 23:24 | 67.28949 | 14.25956 | 3090 ft | 216 kts | 334° |
| 2026-04-27 23:24 | 67.30361 | 14.24134 | 3769 ft | 233 kts | 333° |
| 2026-04-27 23:24 | 67.31806 | 14.22234 | 4699 ft | 238 kts | 333° |
| 2026-04-27 23:25 | 67.33288 | 14.20265 | 5693 ft | 241 kts | 332° |
| 2026-04-27 23:25 | 67.34788 | 14.18257 | 6669 ft | 244 kts | 332° |
| 2026-04-27 23:25 | 67.36309 | 14.16209 | 7611 ft | 247 kts | 332° |
| 2026-04-27 23:25 | 67.37849 | 14.14242 | 8591 ft | 247 kts | 340° |
| 2026-04-27 23:26 | 67.39558 | 14.13838 | 9567 ft | 251 kts | 8° |
| 2026-04-27 23:26 | 67.41168 | 14.15768 | 10388 ft | 266 kts | 37° |
| 2026-04-27 23:26 | 67.42347 | 14.19609 | 10911 ft | 287 kts | 50° |
| 2026-04-27 23:26 | 67.43518 | 14.24124 | 11194 ft | 310 kts | 51° |
| 2026-04-27 23:27 | 67.44720 | 14.28905 | 11782 ft | 319 kts | 52° |
| 2026-04-27 23:27 | 67.45935 | 14.33792 | 12549 ft | 322 kts | 51° |
| 2026-04-27 23:27 | 67.47163 | 14.38722 | 13343 ft | 325 kts | 51° |
| 2026-04-27 23:27 | 67.48406 | 14.43687 | 14151 ft | 328 kts | 50° |
| 2026-04-27 23:28 | 67.49664 | 14.48682 | 14839 ft | 330 kts | 50° |
| 2026-04-27 23:28 | 67.50931 | 14.53704 | 15550 ft | 332 kts | 50° |
| 2026-04-27 23:28 | 67.52209 | 14.58762 | 16268 ft | 334 kts | 50° |
| 2026-04-27 23:28 | 67.53476 | 14.63789 | 16988 ft | 337 kts | 49° |
| 2026-04-27 23:29 | 67.54765 | 14.68931 | 17724 ft | 339 kts | 49° |
| 2026-04-27 23:29 | 67.56054 | 14.74112 | 18427 ft | 341 kts | 49° |
| 2026-04-27 23:29 | 67.57350 | 14.79334 | 19067 ft | 343 kts | 49° |
| 2026-04-27 23:29 | 67.58663 | 14.84595 | 19654 ft | 344 kts | 48° |
| 2026-04-27 23:30 | 67.60048 | 14.89746 | 20235 ft | 345 kts | 46° |
| 2026-04-27 23:30 | 67.61475 | 14.94746 | 20806 ft | 347 kts | 45° |
| 2026-04-27 23:30 | 67.62944 | 14.99773 | 21363 ft | 349 kts | 44° |
| 2026-04-27 23:30 | 67.64436 | 15.04871 | 21990 ft | 351 kts | 44° |
| 2026-04-27 23:31 | 67.65915 | 15.09980 | 22622 ft | 352 kts | 44° |
| 2026-04-27 23:31 | 67.67393 | 15.15144 | 23195 ft | 354 kts | 44° |
| 2026-04-27 23:31 | 67.68874 | 15.20365 | 23736 ft | 357 kts | 44° |
| 2026-04-27 23:31 | 67.70360 | 15.25650 | 24219 ft | 360 kts | 44° |
| 2026-04-27 23:32 | 67.71850 | 15.30976 | 24677 ft | 363 kts | 45° |
| 2026-04-27 23:32 | 67.73354 | 15.36366 | 25148 ft | 365 kts | 44° |
| 2026-04-27 23:32 | 67.74862 | 15.41772 | 25588 ft | 368 kts | 44° |
| 2026-04-27 23:32 | 67.76381 | 15.47225 | 26037 ft | 370 kts | 44° |
| 2026-04-27 23:33 | 67.77909 | 15.52728 | 26492 ft | 372 kts | 44° |
| 2026-04-27 23:33 | 67.79423 | 15.58195 | 26924 ft | 375 kts | 44° |
| 2026-04-27 23:33 | 67.80967 | 15.63801 | 27310 ft | 377 kts | 44° |
| 2026-04-27 23:33 | 67.82516 | 15.69441 | 27664 ft | 380 kts | 44° |
| 2026-04-27 23:34 | 67.84075 | 15.75117 | 28065 ft | 382 kts | 44° |
| 2026-04-27 23:34 | 67.85645 | 15.80844 | 28483 ft | 384 kts | 44° |
| 2026-04-27 23:34 | 67.87220 | 15.86588 | 28896 ft | 386 kts | 44° |
| 2026-04-27 23:34 | 67.88806 | 15.92389 | 29304 ft | 389 kts | 44° |
| 2026-04-27 23:35 | 67.90398 | 15.98251 | 29702 ft | 392 kts | 44° |
| 2026-04-27 23:35 | 67.91992 | 16.04145 | 30119 ft | 395 kts | 44° |
| 2026-04-27 23:35 | 67.93595 | 16.09962 | 30487 ft | 393 kts | 41° |
| 2026-04-27 23:35 | 67.95415 | 16.15348 | 30793 ft | 391 kts | 38° |
| 2026-04-27 23:36 | 67.97282 | 16.20659 | 31064 ft | 394 kts | 38° |
| 2026-04-27 23:36 | 67.99165 | 16.26022 | 31319 ft | 397 kts | 38° |
| 2026-04-27 23:36 | 68.01057 | 16.31435 | 31620 ft | 401 kts | 39° |
| 2026-04-27 23:36 | 68.02966 | 16.36932 | 31834 ft | 404 kts | 39° |
| 2026-04-27 23:37 | 68.04886 | 16.42485 | 32076 ft | 407 kts | 40° |
| 2026-04-27 23:37 | 68.06787 | 16.48002 | 32347 ft | 408 kts | 40° |
| 2026-04-27 23:37 | 68.08714 | 16.53607 | 32666 ft | 410 kts | 40° |
| 2026-04-27 23:37 | 68.10653 | 16.59252 | 32961 ft | 411 kts | 40° |
| 2026-04-27 23:38 | 68.12585 | 16.64894 | 33234 ft | 412 kts | 41° |
| 2026-04-27 23:38 | 68.13869 | 16.68652 | 33427 ft | 413 kts | 41° |
| 2026-04-27 23:38 | 68.15814 | 16.74358 | 33705 ft | 414 kts | 41° |
| 2026-04-27 23:38 | 68.17765 | 16.80098 | 33975 ft | 415 kts | 41° |
| 2026-04-27 23:39 | 68.19711 | 16.85838 | 34250 ft | 416 kts | 42° |
| 2026-04-27 23:39 | 68.21644 | 16.91550 | 34491 ft | 417 kts | 42° |
| 2026-04-27 23:39 | 68.23603 | 16.97348 | 34716 ft | 418 kts | 42° |
| 2026-04-27 23:39 | 68.25556 | 17.03156 | 34943 ft | 419 kts | 42° |
| 2026-04-27 23:40 | 68.27518 | 17.09014 | 35168 ft | 420 kts | 43° |
| 2026-04-27 23:40 | 68.29478 | 17.14874 | 35387 ft | 421 kts | 43° |
| 2026-04-27 23:40 | 68.31436 | 17.20734 | 35626 ft | 422 kts | 43° |
| 2026-04-27 23:40 | 68.33411 | 17.26646 | 35848 ft | 423 kts | 43° |
| 2026-04-27 23:41 | 68.35384 | 17.32578 | 36062 ft | 424 kts | 43° |
| 2026-04-27 23:41 | 68.37355 | 17.38541 | 36279 ft | 425 kts | 43° |
| 2026-04-27 23:41 | 68.39301 | 17.44454 | 36484 ft | 426 kts | 43° |
| 2026-04-27 23:41 | 68.41280 | 17.50467 | 36686 ft | 426 kts | 44° |
| 2026-04-27 23:42 | 68.43261 | 17.56502 | 36868 ft | 427 kts | 44° |
| 2026-04-27 23:42 | 68.45245 | 17.62561 | 37082 ft | 428 kts | 44° |
| 2026-04-27 23:42 | 68.47222 | 17.68622 | 37281 ft | 428 kts | 44° |
| 2026-04-27 23:42 | 68.49177 | 17.74631 | 37413 ft | 429 kts | 44° |
| 2026-04-27 23:43 | 68.53113 | 17.86802 | 37401 ft | 428 kts | 44° |
| 2026-04-27 23:43 | 68.57046 | 17.99025 | 37416 ft | 427 kts | 44° |
| 2026-04-27 23:44 | 68.60814 | 18.11730 | 37396 ft | 431 kts | 49° |
| 2026-04-27 23:44 | 68.64334 | 18.25092 | 37396 ft | 432 kts | 50° |
| 2026-04-27 23:45 | 68.67799 | 18.38467 | 37393 ft | 433 kts | 50° |
| 2026-04-27 23:45 | 68.71340 | 18.51854 | 37401 ft | 433 kts | 49° |
| 2026-04-27 23:46 | 68.74909 | 18.65249 | 37406 ft | 433 kts | 50° |
| 2026-04-27 23:46 | 68.78465 | 18.78682 | 37410 ft | 434 kts | 50° |
| 2026-04-27 23:47 | 68.82002 | 18.92244 | 37420 ft | 434 kts | 50° |
| 2026-04-27 23:47 | 68.85499 | 19.05766 | 37357 ft | 435 kts | 50° |
| 2026-04-27 23:48 | 68.87258 | 19.12586 | 36758 ft | 436 kts | 50° |
| 2026-04-27 23:48 | 68.89016 | 19.19426 | 36171 ft | 434 kts | 50° |
| 2026-04-27 23:48 | 68.90769 | 19.26275 | 35488 ft | 435 kts | 50° |
| 2026-04-27 23:48 | 68.92526 | 19.33137 | 34736 ft | 437 kts | 50° |
| 2026-04-27 23:49 | 68.94281 | 19.40015 | 34159 ft | 433 kts | 50° |
| 2026-04-27 23:49 | 68.96010 | 19.46830 | 33667 ft | 427 kts | 49° |
| 2026-04-27 23:49 | 68.97684 | 19.53448 | 33194 ft | 420 kts | 49° |
| 2026-04-27 23:49 | 68.99354 | 19.60071 | 32714 ft | 414 kts | 49° |
| 2026-04-27 23:50 | 69.00997 | 19.66596 | 32234 ft | 408 kts | 48° |
| 2026-04-27 23:50 | 69.02614 | 19.73044 | 31768 ft | 403 kts | 48° |
| 2026-04-27 23:50 | 69.04217 | 19.79458 | 31309 ft | 399 kts | 47° |
| 2026-04-27 23:50 | 69.05792 | 19.85768 | 30861 ft | 393 kts | 47° |
| 2026-04-27 23:51 | 69.07363 | 19.91965 | 30367 ft | 386 kts | 44° |
| 2026-04-27 23:51 | 69.09110 | 19.97525 | 29868 ft | 376 kts | 40° |
| 2026-04-27 23:51 | 69.10849 | 20.02867 | 29427 ft | 367 kts | 40° |
| 2026-04-27 23:51 | 69.12546 | 20.08128 | 29001 ft | 359 kts | 40° |
| 2026-04-27 23:52 | 69.14199 | 20.13276 | 28582 ft | 351 kts | 40° |
| 2026-04-27 23:52 | 69.15818 | 20.18329 | 28172 ft | 343 kts | 40° |
| 2026-04-27 23:52 | 69.17380 | 20.23215 | 27795 ft | 336 kts | 40° |
| 2026-04-27 23:52 | 69.18929 | 20.28061 | 27421 ft | 330 kts | 40° |
| 2026-04-27 23:53 | 69.20447 | 20.32817 | 27056 ft | 323 kts | 39° |
| 2026-04-27 23:53 | 69.21929 | 20.37472 | 26705 ft | 316 kts | 39° |
| 2026-04-27 23:53 | 69.23378 | 20.42042 | 26365 ft | 309 kts | 39° |
| 2026-04-27 23:53 | 69.24799 | 20.46526 | 26027 ft | 304 kts | 39° |
| 2026-04-27 23:54 | 69.26205 | 20.50957 | 25693 ft | 303 kts | 39° |
| 2026-04-27 23:54 | 69.27605 | 20.55374 | 25357 ft | 300 kts | 39° |
| 2026-04-27 23:54 | 69.28990 | 20.59767 | 25024 ft | 298 kts | 39° |
| 2026-04-27 23:54 | 69.30368 | 20.64151 | 24721 ft | 296 kts | 40° |
| 2026-04-27 23:55 | 69.31720 | 20.68460 | 24382 ft | 298 kts | 41° |
| 2026-04-27 23:55 | 69.33111 | 20.72890 | 24006 ft | 302 kts | 41° |
| 2026-04-27 23:55 | 69.34509 | 20.77352 | 23610 ft | 302 kts | 41° |
| 2026-04-27 23:55 | 69.35906 | 20.81826 | 23243 ft | 302 kts | 41° |
| 2026-04-27 23:56 | 69.37293 | 20.86283 | 22874 ft | 301 kts | 42° |
| 2026-04-27 23:56 | 69.38682 | 20.90764 | 22518 ft | 301 kts | 42° |
| 2026-04-27 23:56 | 69.40063 | 20.95222 | 22150 ft | 300 kts | 42° |
| 2026-04-27 23:56 | 69.41424 | 20.99616 | 21786 ft | 299 kts | 42° |
| 2026-04-27 23:57 | 69.42800 | 21.04072 | 21416 ft | 299 kts | 43° |
| 2026-04-27 23:57 | 69.44168 | 21.08518 | 21047 ft | 298 kts | 43° |
| 2026-04-27 23:57 | 69.45529 | 21.12949 | 20669 ft | 297 kts | 43° |
| 2026-04-27 23:57 | 69.46892 | 21.17392 | 20296 ft | 297 kts | 43° |
| 2026-04-27 23:58 | 69.48250 | 21.21833 | 19923 ft | 296 kts | 44° |
| 2026-04-27 23:58 | 69.49605 | 21.26271 | 19549 ft | 296 kts | 44° |
| 2026-04-27 23:58 | 69.50941 | 21.30663 | 19180 ft | 295 kts | 44° |
| 2026-04-27 23:58 | 69.52290 | 21.35107 | 18806 ft | 295 kts | 44° |
| 2026-04-27 23:59 | 69.53635 | 21.39545 | 18401 ft | 294 kts | 44° |
| 2026-04-27 23:59 | 69.54976 | 21.43978 | 18012 ft | 294 kts | 45° |
| 2026-04-27 23:59 | 69.56313 | 21.48396 | 17635 ft | 292 kts | 45° |
| 2026-04-27 23:59 | 69.57641 | 21.52793 | 17264 ft | 290 kts | 45° |
| 2026-04-28 00:00 | 69.58937 | 21.57098 | 16899 ft | 288 kts | 45° |
| 2026-04-28 00:00 | 69.60242 | 21.61445 | 16536 ft | 287 kts | 45° |
| 2026-04-28 00:00 | 69.61542 | 21.65783 | 16163 ft | 285 kts | 45° |
| 2026-04-28 00:00 | 69.62831 | 21.70093 | 15798 ft | 283 kts | 45° |
| 2026-04-28 00:01 | 69.64113 | 21.74385 | 15433 ft | 282 kts | 45° |
| 2026-04-28 00:01 | 69.65385 | 21.78664 | 15067 ft | 281 kts | 46° |
| 2026-04-28 00:01 | 69.66647 | 21.82926 | 14710 ft | 279 kts | 46° |
| 2026-04-28 00:01 | 69.67907 | 21.87184 | 14340 ft | 278 kts | 46° |
| 2026-04-28 00:02 | 69.69158 | 21.91407 | 13962 ft | 277 kts | 46° |
| 2026-04-28 00:02 | 69.70404 | 21.95613 | 13591 ft | 276 kts | 46° |
| 2026-04-28 00:02 | 69.71644 | 21.99807 | 13234 ft | 275 kts | 46° |
| 2026-04-28 00:02 | 69.72881 | 22.04004 | 12875 ft | 274 kts | 46° |
| 2026-04-28 00:03 | 69.74094 | 22.08150 | 12524 ft | 273 kts | 46° |
| 2026-04-28 00:03 | 69.75316 | 22.12337 | 12163 ft | 272 kts | 46° |
| 2026-04-28 00:03 | 69.76534 | 22.16509 | 11814 ft | 271 kts | 46° |
| 2026-04-28 00:03 | 69.77745 | 22.20668 | 11460 ft | 270 kts | 45° |
| 2026-04-28 00:04 | 69.79078 | 22.24406 | 11108 ft | 265 kts | 34° |
| 2026-04-28 00:04 | 69.81982 | 22.30790 | 10464 ft | 262 kts | 33° |
| 2026-04-28 00:04 | 69.83459 | 22.34054 | 10389 ft | 268 kts | 33° |
| 2026-04-28 00:05 | 69.84943 | 22.37343 | 10265 ft | 270 kts | 33° |
| 2026-04-28 00:05 | 69.86456 | 22.40709 | 9707 ft | 273 kts | 33° |
| 2026-04-28 00:05 | 69.87951 | 22.44052 | 9316 ft | 269 kts | 33° |
| 2026-04-28 00:05 | 69.89436 | 22.47375 | 8853 ft | 268 kts | 33° |
| 2026-04-28 00:06 | 69.90916 | 22.50694 | 8434 ft | 267 kts | 33° |
| 2026-04-28 00:06 | 69.92355 | 22.53931 | 8064 ft | 262 kts | 33° |
| 2026-04-28 00:06 | 69.93789 | 22.57161 | 7680 ft | 260 kts | 33° |
| 2026-04-28 00:06 | 69.95216 | 22.60377 | 7309 ft | 258 kts | 33° |
| 2026-04-28 00:07 | 69.96638 | 22.63578 | 6913 ft | 257 kts | 33° |
| 2026-04-28 00:07 | 69.98052 | 22.66762 | 6416 ft | 256 kts | 33° |
| 2026-04-28 00:07 | 69.99474 | 22.69971 | 5743 ft | 262 kts | 33° |
| 2026-04-28 00:07 | 70.00942 | 22.73302 | 5144 ft | 267 kts | 34° |
| 2026-04-28 00:08 | 70.02372 | 22.76571 | 5007 ft | 253 kts | 34° |
| 2026-04-28 00:08 | 70.03698 | 22.79612 | 4865 ft | 238 kts | 34° |
| 2026-04-28 00:08 | 70.04971 | 22.82530 | 4716 ft | 226 kts | 34° |
| 2026-04-28 00:08 | 70.06090 | 22.85651 | 4497 ft | 223 kts | 52° |
| 2026-04-28 00:09 | 70.06594 | 22.89958 | 4170 ft | 229 kts | 83° |
| 2026-04-28 00:09 | 70.06631 | 22.94652 | 3949 ft | 229 kts | 77° |
| 2026-04-28 00:09 | 70.06855 | 22.99269 | 3587 ft | 229 kts | 85° |
| 2026-04-28 00:09 | 70.06778 | 23.03952 | 3096 ft | 230 kts | 92° |
| 2026-04-28 00:10 | 70.06624 | 23.08555 | 2999 ft | 231 kts | 96° |
| 2026-04-28 00:10 | 70.06229 | 23.13141 | 3019 ft | 233 kts | 108° |
| 2026-04-28 00:10 | 70.05645 | 23.17537 | 3010 ft | 227 kts | 110° |
| 2026-04-28 00:10 | 70.05053 | 23.21790 | 2939 ft | 222 kts | 111° |
| 2026-04-28 00:11 | 70.04471 | 23.25942 | 2580 ft | 219 kts | 111° |
| 2026-04-28 00:11 | 70.03704 | 23.29776 | 2427 ft | 218 kts | 131° |
| 2026-04-28 00:11 | 70.02489 | 23.32382 | 2803 ft | 219 kts | 158° |
| 2026-04-28 00:11 | 70.00993 | 23.33313 | 3218 ft | 225 kts | 172° |
| 2026-04-28 00:12 | 69.99729 | 23.35761 | 2880 ft | 224 kts | 123° |
| 2026-04-28 00:12 | 69.99483 | 23.39916 | 2535 ft | 202 kts | 71° |
| 2026-04-28 00:12 | 70.00336 | 23.42735 | 2223 ft | 185 kts | 19° |
| 2026-04-28 00:12 | 70.01524 | 23.43560 | 2083 ft | 168 kts | 29° |
| 2026-04-28 00:13 | 70.02065 | 23.46483 | 2726 ft | 180 kts | 85° |
| 2026-04-28 00:13 | 70.01548 | 23.49726 | 2479 ft | 177 kts | 139° |
| 2026-04-28 00:13 | 70.00485 | 23.51303 | 1966 ft | 167 kts | 163° |
| 2026-04-28 00:13 | 69.99383 | 23.51588 | 1739 ft | 153 kts | 186° |
| 2026-04-28 00:14 | 69.98390 | 23.50910 | 1532 ft | 143 kts | 204° |
| 2026-04-28 00:14 | 69.97548 | 23.49582 | 1309 ft | 137 kts | 221° |
| 2026-04-28 00:14 | 69.96881 | 23.47669 | 1041 ft | 132 kts | 237° |
| 2026-04-28 00:14 | 69.96531 | 23.45273 | 771 ft | 126 kts | 264° |
| 2026-04-28 00:15 | 69.96597 | 23.42774 | 468 ft | 123 kts | 287° |
| 2026-04-28 00:15 | 69.96921 | 23.40474 | 230 ft | 123 kts | 297° |
| 2026-04-28 00:15 | 69.97363 | 23.38340 | 48 ft | 123 kts | 302° |
| 2026-04-28 00:15 | 69.97763 | 23.36417 | 34 ft | 95 kts | 301° |
| 2026-04-28 00:16 | 69.98032 | 23.35122 | 34 ft | 36 kts | 301° |
| 2026-04-28 00:16 | 69.98074 | 23.34768 | 32 ft | 12 kts | 245° |
| 2026-04-28 00:16 | 69.98016 | 23.34641 | 35 ft | 10 kts | 212° |
| 2026-04-28 00:16 | 69.97958 | 23.34606 | 33 ft | 8 kts | 157° |
| 2026-04-28 00:17 | 69.97921 | 23.34758 | 35 ft | 12 kts | 122° |
| 2026-04-28 00:17 | 69.97870 | 23.34770 | 35 ft | 7 kts | 210° |
| 2026-04-28 00:17 | 69.97844 | 23.34723 | 35 ft | 0 kts | 211° |